createdAt,value
2019-03-06T00:00:32.711Z,6.63
2019-03-06T00:05:29.733Z,6.90
2019-03-06T00:10:31.594Z,5.33
2019-03-06T00:15:29.970Z,4.93
2019-03-06T00:20:27.071Z,4.37
2019-03-06T00:25:24.116Z,4.53
2019-03-06T00:30:21.288Z,4.87
2019-03-06T00:35:27.410Z,4.90
2019-03-06T00:40:42.947Z,4.73
2019-03-06T00:45:40.059Z,6.00
2019-03-06T00:50:37.217Z,5.10
2019-03-06T00:55:34.264Z,5.63
2019-03-06T01:00:35.605Z,5.47
2019-03-06T01:05:32.677Z,6.43
2019-03-06T01:10:30.822Z,5.60
2019-03-06T01:15:27.903Z,5.13
2019-03-06T01:20:25.032Z,5.67
2019-03-06T01:25:24.264Z,6.77
2019-03-06T01:30:24.524Z,5.13
2019-03-06T01:35:23.384Z,6.17
2019-03-06T01:40:22.304Z,6.40
2019-03-06T01:45:19.564Z,5.97
2019-03-06T01:50:16.670Z,5.37
2019-03-06T01:55:13.936Z,7.40
2019-03-06T02:00:15.673Z,6.20
2019-03-06T02:05:12.752Z,6.57
2019-03-06T02:10:12.878Z,6.80
2019-03-06T02:15:16.279Z,5.10
2019-03-06T02:20:19.160Z,5.30
2019-03-06T02:25:16.126Z,6.07
2019-03-06T02:30:18.126Z,6.63
2019-03-06T02:35:16.126Z,6.17
2019-03-06T02:40:13.242Z,6.87
2019-03-06T02:45:16.947Z,7.10
2019-03-06T02:50:18.045Z,7.83
2019-03-06T02:55:16.705Z,7.10
2019-03-06T03:00:19.998Z,8.63
2019-03-06T03:05:19.076Z,6.83
2019-03-06T03:10:16.192Z,7.40
2019-03-06T03:15:13.252Z,8.00
2019-03-06T03:20:10.483Z,7.67
2019-03-06T03:25:07.751Z,8.70
2019-03-06T03:30:10.001Z,9.20
2019-03-06T03:35:07.201Z,8.33
2019-03-06T03:40:10.154Z,9.20
2019-03-06T03:45:11.433Z,8.67
2019-03-06T03:50:09.453Z,10.50
2019-03-06T03:55:15.472Z,8.30
2019-03-06T04:00:21.158Z,9.77
2019-03-06T04:05:18.250Z,9.67
2019-03-06T04:10:15.514Z,8.93
2019-03-06T04:15:15.838Z,9.30
2019-03-06T04:20:14.469Z,10.60
2019-03-06T04:25:11.767Z,11.23
2019-03-06T04:30:16.857Z,10.17
2019-03-06T04:35:13.894Z,10.03
2019-03-06T04:40:13.392Z,8.77
2019-03-06T04:45:15.107Z,11.50
2019-03-06T04:50:15.399Z,10.00
2019-03-06T04:55:14.071Z,11.40
2019-03-06T05:00:19.391Z,10.57
2019-03-06T05:05:16.444Z,10.20
2019-03-06T05:10:13.746Z,12.43
2019-03-06T05:15:15.492Z,10.70
2019-03-06T05:20:12.649Z,11.77
2019-03-06T05:25:09.624Z,11.87
2019-03-06T05:30:12.911Z,11.67
2019-03-06T05:35:24.405Z,12.30
2019-03-06T05:40:21.757Z,12.23
2019-03-06T05:45:18.782Z,11.40
2019-03-06T05:50:15.775Z,12.60
2019-03-06T05:55:12.873Z,11.73
2019-03-06T06:00:16.449Z,10.50
2019-03-06T06:05:13.536Z,12.77
2019-03-06T06:10:15.229Z,13.37
2019-03-06T06:15:14.090Z,12.83
2019-03-06T06:20:13.439Z,12.17
2019-03-06T06:25:10.392Z,12.47
2019-03-06T06:30:10.502Z,14.30
2019-03-06T06:35:10.971Z,11.83
2019-03-06T06:40:13.139Z,12.73
2019-03-06T06:45:17.793Z,12.73
2019-03-06T06:50:16.900Z,13.60
2019-03-06T06:55:31.651Z,13.27
2019-03-06T07:01:00.133Z,12.50
2019-03-06T07:06:01.887Z,13.33
2019-03-06T07:11:16.558Z,12.13
2019-03-06T07:16:18.251Z,12.37
2019-03-06T07:21:21.903Z,11.43
2019-03-06T07:26:35.118Z,11.00
2019-03-06T07:31:36.615Z,10.77
2019-03-06T07:36:44.554Z,10.00
2019-03-06T07:41:43.320Z,8.27
2019-03-06T07:46:50.715Z,9.33
2019-03-06T07:52:06.212Z,8.97
2019-03-06T07:57:09.781Z,9.07
2019-03-06T08:02:38.480Z,8.73
2019-03-06T08:07:35.406Z,8.20
2019-03-06T08:12:34.344Z,8.80
2019-03-06T08:17:51.474Z,8.80
2019-03-06T08:22:55.450Z,8.73
2019-03-06T08:27:52.912Z,8.80
2019-03-06T08:32:52.108Z,7.40
2019-03-06T08:37:49.135Z,6.93
2019-03-06T08:42:46.288Z,7.77
2019-03-06T08:47:51.659Z,8.13
2019-03-06T08:52:50.534Z,9.13
2019-03-06T08:57:50.211Z,9.00
2019-03-06T09:03:04.414Z,8.60
2019-03-06T09:08:28.621Z,7.33
2019-03-06T09:13:36.468Z,8.00
2019-03-06T09:18:35.479Z,8.67
2019-03-06T09:23:34.489Z,9.37
2019-03-06T09:28:44.297Z,8.87
2019-03-06T09:33:45.967Z,9.83
2019-03-06T09:38:42.797Z,9.37
2019-03-06T09:43:51.142Z,7.80
2019-03-06T09:48:54.562Z,6.37
2019-03-06T09:53:53.510Z,6.70
2019-03-06T09:59:03.144Z,6.60
2019-03-06T10:04:00.048Z,6.67
2019-03-06T10:08:58.869Z,6.13
2019-03-06T10:13:59.364Z,6.03
2019-03-06T10:19:09.585Z,6.87
2019-03-06T10:24:06.767Z,6.43
2019-03-06T10:29:04.156Z,8.07
2019-03-06T10:34:01.411Z,6.67
2019-03-06T10:38:58.479Z,6.17
2019-03-06T10:43:57.493Z,7.20
2019-03-06T10:48:54.656Z,7.27
2019-03-06T10:53:53.565Z,6.17
2019-03-06T10:58:53.124Z,6.90
2019-03-06T11:03:54.961Z,6.63
2019-03-06T11:08:52.049Z,5.90
2019-03-06T11:13:52.848Z,5.57
2019-03-06T11:18:49.902Z,5.23
2019-03-06T11:23:47.295Z,6.40
2019-03-06T11:28:44.357Z,4.47
2019-03-06T11:33:42.779Z,4.50
2019-03-06T11:38:39.824Z,4.37
2019-03-06T11:43:36.799Z,2.87
2019-03-06T11:48:33.812Z,3.43
2019-03-06T11:53:37.907Z,3.83
2019-03-06T11:58:34.949Z,4.07
2019-03-06T12:03:35.960Z,3.37
2019-03-06T12:08:33.061Z,3.83
2019-03-06T12:13:30.251Z,3.67
2019-03-06T12:18:27.466Z,4.40
2019-03-06T12:23:26.528Z,3.77
2019-03-06T12:28:25.526Z,4.03
2019-03-06T12:33:26.576Z,4.27
2019-03-06T12:38:25.588Z,4.03
2019-03-06T12:43:29.818Z,4.10
2019-03-06T12:48:27.230Z,3.70
2019-03-06T12:53:28.701Z,3.83
2019-03-06T12:58:26.088Z,4.20
2019-03-06T13:03:23.295Z,3.97
2019-03-06T13:08:20.495Z,3.57
2019-03-06T13:13:17.514Z,2.83
2019-03-06T13:18:16.757Z,3.00
2019-03-06T13:23:13.834Z,3.40
2019-03-06T13:28:12.960Z,2.90
2019-03-06T13:33:13.902Z,3.30
2019-03-06T13:38:16.482Z,3.13
2019-03-06T13:43:15.125Z,2.73
2019-03-06T13:48:12.255Z,3.20
2019-03-06T13:53:09.421Z,2.83
2019-03-06T13:58:06.968Z,2.40
2019-03-06T14:03:04.871Z,2.97
2019-03-06T14:08:02.648Z,3.03
2019-03-06T14:12:59.566Z,4.90
2019-03-06T14:17:56.638Z,3.20
2019-03-06T14:22:53.725Z,3.93
2019-03-06T14:27:51.426Z,2.67
2019-03-06T14:32:49.130Z,3.47
2019-03-06T14:37:46.186Z,3.23
2019-03-06T14:42:43.199Z,3.20
2019-03-06T14:47:40.879Z,3.00
2019-03-06T14:52:37.914Z,4.03
2019-03-06T14:57:34.928Z,5.07
2019-03-06T15:02:32.258Z,3.73
2019-03-06T15:07:29.928Z,3.03
2019-03-06T15:12:26.937Z,4.40
2019-03-06T15:17:24.256Z,4.50
2019-03-06T15:22:21.281Z,3.70
2019-03-06T15:27:19.435Z,5.63
2019-03-06T15:32:16.503Z,5.30
2019-03-06T15:37:13.765Z,9.77
2019-03-06T15:42:11.285Z,3.63
2019-03-06T15:47:08.459Z,5.37
2019-03-06T15:52:07.398Z,5.13
2019-03-06T15:57:07.050Z,5.40
2019-03-06T16:02:04.076Z,9.03
2019-03-06T16:07:02.620Z,7.97
2019-03-06T16:12:00.922Z,37.93
2019-03-06T16:16:59.286Z,8.27
2019-03-06T16:21:56.305Z,4.03
2019-03-06T16:26:54.100Z,8.67
2019-03-06T16:31:51.163Z,6.80
2019-03-06T16:36:48.329Z,8.83
2019-03-06T16:41:45.268Z,11.13
2019-03-06T16:46:42.262Z,9.43
2019-03-06T16:51:39.250Z,18.33
2019-03-06T16:56:36.310Z,14.43
2019-03-06T17:01:33.458Z,19.27
2019-03-06T17:06:30.650Z,11.13
2019-03-06T17:11:27.622Z,9.27
2019-03-06T17:16:25.982Z,10.90
2019-03-06T17:21:23.149Z,10.07
2019-03-06T17:26:20.783Z,12.97
2019-03-06T17:31:17.868Z,11.90
2019-03-06T17:36:15.026Z,11.63
2019-03-06T17:41:12.171Z,10.77
2019-03-06T17:46:10.575Z,12.90
2019-03-06T17:51:07.620Z,9.93
2019-03-06T17:56:04.697Z,10.10
2019-03-06T18:01:06.293Z,11.80
2019-03-06T18:06:07.312Z,11.53
2019-03-06T18:11:04.646Z,10.63
2019-03-06T18:16:01.709Z,10.20
2019-03-06T18:20:59.323Z,11.53
2019-03-06T18:25:58.364Z,10.93
2019-03-06T18:30:55.339Z,11.43
2019-03-06T18:35:52.441Z,14.10
2019-03-06T18:40:49.478Z,13.67
2019-03-06T18:45:46.486Z,12.67
2019-03-06T18:50:43.531Z,11.23
2019-03-06T18:55:40.664Z,12.20
2019-03-06T19:00:37.882Z,15.97
2019-03-06T19:05:36.967Z,12.37
2019-03-06T19:10:34.222Z,10.97
2019-03-06T19:15:31.299Z,16.20
2019-03-06T19:20:28.385Z,11.93
2019-03-06T19:25:26.367Z,13.20
2019-03-06T19:30:26.193Z,26.17
2019-03-06T19:35:25.552Z,16.23
2019-03-06T19:40:22.623Z,15.90
2019-03-06T19:45:24.821Z,11.43
2019-03-06T19:50:26.324Z,9.83
2019-03-06T19:55:23.495Z,14.13
2019-03-06T20:00:22.714Z,11.27
2019-03-06T20:05:20.849Z,10.00
2019-03-06T20:10:18.654Z,36.43
2019-03-06T20:15:18.313Z,23.30
2019-03-06T20:20:17.837Z,15.73
2019-03-06T20:25:17.211Z,10.37
2019-03-06T20:30:23.268Z,8.07
2019-03-06T20:35:22.297Z,8.97
2019-03-06T20:40:19.801Z,7.53
2019-03-06T20:45:17.982Z,7.40
2019-03-06T20:50:18.551Z,8.60
2019-03-06T20:55:16.096Z,8.37
2019-03-06T21:00:22.946Z,7.73
2019-03-06T21:05:20.127Z,7.50
2019-03-06T21:10:19.681Z,8.10
2019-03-06T21:15:23.326Z,7.53
2019-03-06T21:20:22.781Z,6.53
2019-03-06T21:25:20.897Z,6.73
2019-03-06T21:30:40.524Z,8.63
2019-03-06T21:35:37.724Z,9.50
2019-03-06T21:40:34.874Z,7.33
2019-03-06T21:45:33.738Z,7.83
2019-03-06T21:50:30.796Z,8.07
2019-03-06T21:55:31.190Z,7.53
2019-03-06T22:00:28.427Z,9.30
2019-03-06T22:05:25.587Z,7.90
2019-03-06T22:10:22.773Z,10.57
2019-03-06T22:15:21.253Z,9.30
2019-03-06T22:20:18.478Z,10.00
2019-03-06T22:25:17.760Z,9.77
2019-03-06T22:30:22.615Z,13.00
2019-03-06T22:35:19.999Z,15.40
2019-03-06T22:40:21.030Z,15.33
2019-03-06T22:45:19.815Z,9.23
2019-03-06T22:50:18.411Z,10.63
2019-03-06T22:55:19.460Z,8.93
2019-03-06T23:00:45.339Z,8.03
2019-03-06T23:05:42.523Z,5.87
2019-03-06T23:10:39.970Z,6.23
2019-03-06T23:15:38.926Z,7.33
2019-03-06T23:20:36.178Z,6.30
2019-03-06T23:25:33.316Z,6.23
2019-03-06T23:30:30.514Z,6.00
2019-03-06T23:35:27.650Z,5.23
2019-03-06T23:40:27.399Z,5.20
2019-03-06T23:45:24.532Z,5.93
2019-03-06T23:50:21.638Z,6.40
2019-03-06T23:55:18.688Z,5.83
